This is the latest recevied weather packets stored in our database for station/object DB0ADS-6. If no packets are shown the sender has not sent any weather packets the latest 1 day(s).
| Time | Temp. | Humidity | Pressure | Rain* | Wind** | Luminosity | Snow |
|---|---|---|---|---|---|---|---|
| 1778004333 | 12.78° C | 93% | 1004.7 hPa | 0 mm | 0.89 m/s, 307° | - | - |
| 1778004051 | 12.78° C | 93% | 1004.7 hPa | 0 mm | 0 m/s | - | - |
| 1778003729 | 12.78° C | 93% | 1004.7 hPa | 0 mm | 0.89 m/s, 274° | - | - |
| 1778003428 | 12.78° C | 93% | 1004.6 hPa | 0 mm | 0.89 m/s, 288° | - | - |
| 1778003126 | 12.78° C | 94% | 1004.5 hPa | 0 mm | 0.45 m/s, 292° | - | - |
| 1778002824 | 12.78° C | 93% | 1004.4 hPa | 0.51 mm | 0.89 m/s, 299° | - | - |
| 1778002522 | 12.22° C | 93% | 1004.4 hPa | 1.02 mm | 1.34 m/s, 311° | - | - |
| 1778002221 | 12.22° C | 93% | 1004.4 hPa | 1.27 mm | 0.89 m/s, 307° | - | - |
| 1778001919 | 12.22° C | 93% | 1004.3 hPa | 1.52 mm | 0.89 m/s, 308° | - | - |
| 1778001617 | 12.22° C | 92% | 1004.3 hPa | 1.78 mm | 0.89 m/s, 306° | - | - |
| 1778001315 | 12.22° C | 92% | 1004.3 hPa | 2.29 mm | 0.89 m/s, 277° | - | - |
| 1778001075 | 12.22° C | 92% | 1004.2 hPa | 2.79 mm | 1.34 m/s, 301° | - | - |
| 1778000772 | 12.22° C | 92% | 1004.4 hPa | 3.3 mm | 0.89 m/s, 254° | - | - |
| 1778000470 | 12.22° C | 93% | 1004.3 hPa | 3.81 mm | 0.89 m/s, 296° | - | - |
| 1778000228 | 12.22° C | 92% | 1004.4 hPa | 4.57 mm | 0.89 m/s, 315° | - | - |
| 1777999866 | 12.22° C | 92% | 1004.4 hPa | 4.83 mm | 1.34 m/s, 311° | - | - |
| 1777999565 | 12.22° C | 91% | 1004.6 hPa | 5.08 mm | 1.34 m/s, 311° | - | - |
| 1777999263 | 12.22° C | 91% | 1004.7 hPa | 4.83 mm | 0.89 m/s, 315° | - | - |
| 1777998961 | 12.22° C | 90% | 1004.9 hPa | 4.57 mm | 0.89 m/s, 315° | - | - |
| 1777998659 | 12.22° C | 91% | 1005 hPa | 4.32 mm | 1.34 m/s, 309° | - | - |
| 1777998358 | 12.22° C | 91% | 1005.3 hPa | 4.57 mm | 1.34 m/s, 236° | - | - |
| 1777998056 | 12.22° C | 91% | 1005.5 hPa | 4.83 mm | 1.34 m/s, 225° | - | - |
| 1777997754 | 12.78° C | 90% | 1005.4 hPa | 4.83 mm | 2.24 m/s, 246° | - | - |
| 1777997452 | 12.78° C | 91% | 1005.4 hPa | 5.33 mm | 1.34 m/s, 221° | - | - |
| 1777997151 | 12.78° C | 90% | 1005.4 hPa | 4.83 mm | 2.24 m/s, 205° | - | - |
* Rain latest hour (hover to see other rain measurements)
** Current wind speed in m/s (hover to see current wind gust speed)